createdAt,value
2022-10-22T00:02:56.249Z,2.03
2022-10-22T00:05:58.309Z,2.25
2022-10-22T00:09:00.205Z,2.05
2022-10-22T00:12:03.256Z,2.15
2022-10-22T00:15:06.373Z,2.17
2022-10-22T00:18:08.524Z,1.92
2022-10-22T00:21:13.257Z,2.65
2022-10-22T00:24:15.723Z,3.65
2022-10-22T00:27:17.538Z,2.72
2022-10-22T00:30:19.637Z,3.22
2022-10-22T00:33:22.724Z,1.90
2022-10-22T00:36:24.680Z,1.88
2022-10-22T00:39:27.813Z,1.83
2022-10-22T00:42:30.597Z,1.90
2022-10-22T00:45:32.392Z,1.98
2022-10-22T00:48:34.534Z,2.03
2022-10-22T00:51:36.669Z,3.53
2022-10-22T00:54:38.961Z,2.78
2022-10-22T00:57:41.193Z,2.28
2022-10-22T01:00:45.164Z,2.85
2022-10-22T01:03:48.469Z,3.65
2022-10-22T01:06:50.254Z,2.00
2022-10-22T01:10:13.828Z,1.30
2022-10-22T01:13:41.303Z,1.75
2022-10-22T01:17:13.971Z,1.50
2022-10-22T01:20:31.617Z,2.00
2022-10-22T01:24:05.356Z,1.75
2022-10-22T01:27:13.434Z,2.20
2022-10-22T01:30:16.231Z,1.73
2022-10-22T01:33:20.132Z,2.03
2022-10-22T01:36:22.564Z,1.85
2022-10-22T01:39:26.073Z,1.63
2022-10-22T01:42:28.649Z,1.75
2022-10-22T01:45:33.859Z,1.50
2022-10-22T01:48:47.747Z,1.65
2022-10-22T01:51:52.827Z,1.33
2022-10-22T01:55:16.742Z,1.85
2022-10-22T01:58:58.232Z,1.52
2022-10-22T02:02:05.665Z,2.10
2022-10-22T02:08:12.715Z,1.30
2022-10-22T02:11:16.331Z,2.22
2022-10-22T02:14:19.606Z,1.92
2022-10-22T02:17:24.004Z,1.77
2022-10-22T02:20:32.141Z,1.63
2022-10-22T02:23:34.190Z,1.40
2022-10-22T02:27:01.596Z,1.75
2022-10-22T02:30:09.281Z,1.45
2022-10-22T02:33:13.036Z,2.15
2022-10-22T02:36:17.707Z,1.95
2022-10-22T02:39:20.850Z,1.48
2022-10-22T02:42:26.359Z,1.60
2022-10-22T02:45:28.103Z,1.73
2022-10-22T02:48:29.916Z,1.80
2022-10-22T02:51:32.268Z,1.60
2022-10-22T02:54:34.232Z,2.08
2022-10-22T02:57:36.140Z,1.92
2022-10-22T03:00:38.621Z,1.25
2022-10-22T03:03:40.418Z,1.70
2022-10-22T03:06:44.734Z,2.22
2022-10-22T03:09:46.787Z,1.70
2022-10-22T03:12:48.711Z,1.35
2022-10-22T03:15:51.164Z,1.90
2022-10-22T03:18:52.878Z,1.67
2022-10-22T03:22:01.606Z,1.80
2022-10-22T03:25:08.277Z,1.83
2022-10-22T03:28:11.243Z,1.58
2022-10-22T03:31:13.538Z,1.60
2022-10-22T03:34:15.448Z,1.35
2022-10-22T03:37:17.451Z,1.95
2022-10-22T03:40:20.114Z,1.98
2022-10-22T03:43:21.811Z,2.13
2022-10-22T03:46:23.738Z,2.25
2022-10-22T03:49:26.437Z,1.50
2022-10-22T03:52:28.281Z,2.28
2022-10-22T03:55:30.894Z,1.88
2022-10-22T03:58:32.771Z,1.55
2022-10-22T04:01:34.622Z,1.48
2022-10-22T04:04:36.996Z,1.67
2022-10-22T04:07:38.977Z,1.83
2022-10-22T04:10:41.773Z,2.33
2022-10-22T04:13:44.148Z,1.60
2022-10-22T04:16:45.860Z,1.98
2022-10-22T04:19:50.185Z,1.63
2022-10-22T04:22:51.967Z,1.70
2022-10-22T04:26:06.512Z,1.80
2022-10-22T04:29:11.917Z,2.00
2022-10-22T04:32:17.788Z,1.63
2022-10-22T04:35:19.620Z,2.03
2022-10-22T04:38:21.368Z,1.63
2022-10-22T04:41:26.032Z,2.20
2022-10-22T04:44:27.833Z,1.65
2022-10-22T04:47:30.206Z,1.80
2022-10-22T04:50:32.167Z,1.58
2022-10-22T04:53:35.871Z,2.30
2022-10-22T04:56:38.536Z,1.75
2022-10-22T04:59:40.875Z,2.10
2022-10-22T05:02:45.117Z,1.75
2022-10-22T05:05:47.144Z,2.75
2022-10-22T05:08:53.552Z,2.25
2022-10-22T05:11:55.984Z,1.53
2022-10-22T05:14:59.200Z,2.25
2022-10-22T05:18:02.016Z,1.88
2022-10-22T05:21:15.884Z,2.08
2022-10-22T05:24:19.071Z,1.88
2022-10-22T05:27:21.361Z,1.60
2022-10-22T05:30:23.191Z,1.63
2022-10-22T05:33:26.155Z,1.98
2022-10-22T05:36:28.415Z,2.00
2022-10-22T05:39:30.476Z,1.85
2022-10-22T05:42:33.184Z,1.63
2022-10-22T05:45:42.642Z,1.50
2022-10-22T05:48:44.848Z,1.60
2022-10-22T05:51:47.605Z,1.88
2022-10-22T05:54:50.078Z,2.33
2022-10-22T05:57:51.954Z,1.38
2022-10-22T06:00:54.179Z,1.75
2022-10-22T06:04:05.295Z,2.17
2022-10-22T06:07:09.960Z,2.20
2022-10-22T06:10:16.061Z,1.65
2022-10-22T06:13:17.948Z,2.00
2022-10-22T06:16:20.362Z,1.50
2022-10-22T06:19:23.873Z,1.85
2022-10-22T06:22:26.983Z,2.38
2022-10-22T06:25:29.737Z,1.98
2022-10-22T06:28:32.066Z,1.88
2022-10-22T06:31:36.994Z,1.92
2022-10-22T06:34:39.493Z,5.25
2022-10-22T06:37:42.001Z,2.35
2022-10-22T06:40:45.777Z,2.40
2022-10-22T06:43:48.748Z,4.68
2022-10-22T06:46:54.567Z,2.92
2022-10-22T06:49:57.256Z,3.05
2022-10-22T06:52:59.270Z,3.10
2022-10-22T06:56:09.249Z,3.55
2022-10-22T06:59:11.151Z,3.92
2022-10-22T07:02:13.900Z,3.58
2022-10-22T07:05:17.097Z,3.05
2022-10-22T07:08:19.899Z,3.17
2022-10-22T07:11:27.226Z,4.63
2022-10-22T07:14:32.667Z,4.75
2022-10-22T07:17:35.187Z,4.32
2022-10-22T07:20:37.573Z,3.75
2022-10-22T07:23:39.817Z,3.00
2022-10-22T07:26:42.048Z,3.25
2022-10-22T07:29:44.259Z,2.85
2022-10-22T07:32:47.292Z,3.42
2022-10-22T07:35:50.153Z,2.95
2022-10-22T07:39:00.564Z,3.33
2022-10-22T07:42:03.190Z,3.25
2022-10-22T07:45:06.241Z,3.30
2022-10-22T07:48:08.698Z,3.92
2022-10-22T07:51:10.667Z,3.47
2022-10-22T07:54:13.178Z,3.58
2022-10-22T07:57:15.275Z,3.42
2022-10-22T08:00:20.578Z,3.63
2022-10-22T08:03:25.258Z,3.90
2022-10-22T08:06:28.003Z,4.35
2022-10-22T08:09:29.960Z,3.13
2022-10-22T08:12:31.944Z,3.90
2022-10-22T08:18:44.443Z,4.20
2022-10-22T08:21:46.965Z,4.07
2022-10-22T08:24:53.726Z,4.15
2022-10-22T08:27:56.053Z,4.00
2022-10-22T08:30:59.529Z,3.65
2022-10-22T08:34:01.738Z,4.03
2022-10-22T08:37:03.811Z,3.35
2022-10-22T08:40:06.681Z,3.33
2022-10-22T08:43:14.410Z,2.33
2022-10-22T08:46:37.975Z,3.25
2022-10-22T08:49:42.537Z,2.33
2022-10-22T08:52:47.216Z,3.08
2022-10-22T08:55:53.506Z,2.65
2022-10-22T08:59:03.908Z,3.05
2022-10-22T09:02:38.947Z,2.78
2022-10-22T09:05:57.001Z,3.03
2022-10-22T09:09:00.516Z,3.20
2022-10-22T09:12:04.730Z,2.90
2022-10-22T09:15:09.369Z,2.20
2022-10-22T09:18:33.120Z,2.53
2022-10-22T09:21:53.955Z,2.65
2022-10-22T09:25:14.972Z,2.42
2022-10-22T09:28:18.118Z,2.85
2022-10-22T09:31:21.198Z,2.20
2022-10-22T09:34:23.339Z,2.95
2022-10-22T09:37:28.706Z,3.03
2022-10-22T09:40:31.724Z,3.53
2022-10-22T09:43:35.294Z,4.13
2022-10-22T09:46:44.758Z,4.15
2022-10-22T09:49:46.808Z,3.47
2022-10-22T09:53:01.978Z,4.47
2022-10-22T09:56:10.083Z,4.00
2022-10-22T09:59:17.190Z,4.55
2022-10-22T10:02:37.531Z,4.50
2022-10-22T10:05:41.657Z,3.55
2022-10-22T10:08:43.982Z,3.95
2022-10-22T10:11:50.140Z,5.10
2022-10-22T10:15:01.425Z,5.22
2022-10-22T10:18:18.488Z,4.38
2022-10-22T10:21:36.309Z,4.75
2022-10-22T10:25:10.913Z,4.53
2022-10-22T10:28:31.394Z,4.32
2022-10-22T10:31:42.209Z,4.25
2022-10-22T10:34:51.028Z,4.63
2022-10-22T10:38:33.929Z,4.25
2022-10-22T10:41:48.385Z,4.05
2022-10-22T10:45:33.060Z,4.22
2022-10-22T10:48:57.115Z,5.15
2022-10-22T10:52:21.467Z,4.25
2022-10-22T10:55:33.577Z,4.82
2022-10-22T10:58:45.461Z,3.92
2022-10-22T11:01:54.251Z,4.38
2022-10-22T11:05:12.176Z,3.78
2022-10-22T11:08:29.269Z,3.53
2022-10-22T11:11:51.234Z,4.15
2022-10-22T11:15:04.353Z,3.63
2022-10-22T11:18:15.164Z,5.35
2022-10-22T11:21:23.001Z,5.20
2022-10-22T11:24:29.301Z,4.35
2022-10-22T11:27:43.281Z,3.67
2022-10-22T11:30:49.713Z,4.47
2022-10-22T11:34:04.913Z,3.83
2022-10-22T11:37:14.022Z,4.75
2022-10-22T11:40:21.768Z,5.82
2022-10-22T11:43:35.848Z,4.00
2022-10-22T11:46:47.647Z,4.13
2022-10-22T11:49:59.340Z,5.45
2022-10-22T11:53:13.860Z,4.13
2022-10-22T11:56:25.633Z,4.60
2022-10-22T11:59:49.959Z,5.10
2022-10-22T12:03:03.841Z,3.65
2022-10-22T12:06:12.879Z,3.40
2022-10-22T12:09:14.961Z,3.47
2022-10-22T12:12:21.243Z,4.60
2022-10-22T12:15:27.371Z,5.22
2022-10-22T12:18:41.530Z,3.40
2022-10-22T12:21:49.156Z,4.60
2022-10-22T12:24:58.296Z,3.65
2022-10-22T12:28:01.281Z,3.92
2022-10-22T12:31:03.476Z,3.15
2022-10-22T12:34:05.939Z,4.65
2022-10-22T12:37:08.294Z,4.28
2022-10-22T12:40:17.543Z,3.60
2022-10-22T12:43:25.620Z,4.78
2022-10-22T12:46:30.228Z,4.20
2022-10-22T12:49:39.867Z,3.55
2022-10-22T12:52:44.548Z,5.45
2022-10-22T12:55:49.900Z,6.80
2022-10-22T12:59:04.008Z,4.82
2022-10-22T13:02:27.154Z,5.07
2022-10-22T13:05:39.589Z,3.97
2022-10-22T13:08:42.058Z,4.80
2022-10-22T13:11:49.659Z,5.35
2022-10-22T13:14:51.829Z,6.43
2022-10-22T13:18:18.671Z,5.70
2022-10-22T13:21:28.725Z,6.68
2022-10-22T13:24:31.298Z,6.40
2022-10-22T13:27:33.624Z,6.50
2022-10-22T13:30:37.217Z,8.40
2022-10-22T13:33:44.369Z,12.25
2022-10-22T13:36:47.097Z,16.40
2022-10-22T13:39:49.845Z,16.88
2022-10-22T13:42:51.667Z,7.07
2022-10-22T13:45:56.808Z,7.55
2022-10-22T13:49:00.141Z,5.93
2022-10-22T13:52:02.984Z,6.60
2022-10-22T13:55:20.626Z,5.35
2022-10-22T14:01:28.307Z,3.85
2022-10-22T14:04:30.437Z,3.75
2022-10-22T14:07:32.859Z,5.00
2022-10-22T14:10:34.715Z,6.22
2022-10-22T14:13:37.137Z,9.82
2022-10-22T14:16:39.236Z,10.23
2022-10-22T14:19:41.030Z,8.93
2022-10-22T14:22:43.491Z,9.05
2022-10-22T14:25:45.822Z,10.70
2022-10-22T14:29:08.702Z,17.35
2022-10-22T14:32:17.748Z,16.08
2022-10-22T14:35:22.700Z,13.15
2022-10-22T14:38:24.731Z,8.00
2022-10-22T14:41:29.016Z,6.07
2022-10-22T14:44:30.987Z,7.07
2022-10-22T14:47:33.761Z,6.07
2022-10-22T14:50:35.985Z,5.85
2022-10-22T14:53:38.842Z,7.00
2022-10-22T14:56:41.464Z,7.65
2022-10-22T14:59:43.385Z,4.90
2022-10-22T15:02:46.038Z,5.63
2022-10-22T15:05:54.300Z,7.63
2022-10-22T15:08:57.332Z,5.07
2022-10-22T15:11:59.535Z,6.30
2022-10-22T15:15:02.275Z,5.70
2022-10-22T15:18:04.736Z,7.00
2022-10-22T15:21:12.049Z,6.72
2022-10-22T15:24:13.938Z,6.15
2022-10-22T15:27:17.118Z,7.13
2022-10-22T15:30:19.177Z,7.00
2022-10-22T15:33:22.051Z,13.27
2022-10-22T15:36:24.164Z,8.65
2022-10-22T15:39:28.152Z,10.27
2022-10-22T15:42:30.733Z,7.57
2022-10-22T15:45:33.001Z,7.82
2022-10-22T15:48:36.104Z,8.40
2022-10-22T15:51:38.664Z,6.95
2022-10-22T15:54:43.107Z,9.52
2022-10-22T15:57:45.898Z,8.60
2022-10-22T16:00:48.927Z,8.75
2022-10-22T16:04:01.268Z,8.63
2022-10-22T16:07:03.255Z,10.50
2022-10-22T16:10:08.851Z,10.07
2022-10-22T16:13:11.211Z,8.80
2022-10-22T16:16:13.103Z,8.20
2022-10-22T16:19:17.905Z,8.27
2022-10-22T16:22:20.272Z,8.82
2022-10-22T16:25:23.048Z,8.00
2022-10-22T16:28:25.169Z,8.73
2022-10-22T16:31:27.988Z,8.48
2022-10-22T16:34:30.511Z,8.70
2022-10-22T16:37:32.498Z,7.72
2022-10-22T16:40:35.545Z,8.25
2022-10-22T16:43:38.495Z,9.85
2022-10-22T16:46:40.760Z,10.50
2022-10-22T16:49:44.053Z,8.75
2022-10-22T16:52:46.126Z,12.65
2022-10-22T16:55:49.005Z,16.02
2022-10-22T16:58:53.820Z,9.10
2022-10-22T17:01:56.404Z,8.35
2022-10-22T17:04:59.001Z,9.38
2022-10-22T17:08:01.425Z,8.43
2022-10-22T17:11:08.515Z,8.82
2022-10-22T17:17:13.585Z,8.60
2022-10-22T17:20:15.684Z,10.88
2022-10-22T17:23:18.130Z,6.85
2022-10-22T17:26:22.403Z,6.70
2022-10-22T17:29:25.437Z,6.68
2022-10-22T17:32:27.704Z,7.57
2022-10-22T17:35:35.264Z,16.08
2022-10-22T17:38:38.955Z,13.02
2022-10-22T17:41:41.635Z,25.63
2022-10-22T17:44:43.728Z,16.48
2022-10-22T17:47:46.241Z,33.63
2022-10-22T17:50:51.007Z,8.98
2022-10-22T17:53:55.322Z,7.38
2022-10-22T17:56:57.563Z,8.18
2022-10-22T18:00:00.511Z,8.02
2022-10-22T18:03:02.591Z,7.70
2022-10-22T18:06:10.082Z,8.27
2022-10-22T18:09:18.302Z,7.05
2022-10-22T18:12:22.037Z,12.95
2022-10-22T18:15:24.686Z,8.75
2022-10-22T18:18:29.722Z,12.65
2022-10-22T18:21:31.799Z,9.23
2022-10-22T18:24:36.233Z,11.30
2022-10-22T18:27:39.264Z,10.93
2022-10-22T18:30:42.391Z,12.23
2022-10-22T18:33:44.937Z,8.40
2022-10-22T18:36:46.873Z,8.82
2022-10-22T18:39:50.105Z,9.48
2022-10-22T18:42:52.290Z,7.75
2022-10-22T18:45:55.185Z,11.45
2022-10-22T18:48:58.650Z,13.05
2022-10-22T18:52:01.797Z,8.43
2022-10-22T18:55:04.311Z,9.02
2022-10-22T18:58:07.267Z,12.80
2022-10-22T19:01:15.140Z,10.93
2022-10-22T19:04:18.480Z,13.90
2022-10-22T19:07:20.517Z,12.57
2022-10-22T19:10:22.450Z,10.13
2022-10-22T19:13:25.934Z,11.75
2022-10-22T19:16:28.792Z,10.48
2022-10-22T19:19:31.741Z,9.80
2022-10-22T19:22:34.493Z,8.23
2022-10-22T19:25:37.893Z,9.00
2022-10-22T19:28:40.824Z,8.10
2022-10-22T19:31:48.221Z,9.02
2022-10-22T19:34:51.178Z,9.02
2022-10-22T19:37:54.016Z,9.80
2022-10-22T19:40:56.431Z,10.45
2022-10-22T19:44:00.169Z,8.48
2022-10-22T19:47:02.064Z,9.35
2022-10-22T19:50:04.696Z,10.07
2022-10-22T19:53:07.845Z,9.65
2022-10-22T19:56:11.540Z,11.20
2022-10-22T19:59:16.108Z,9.60
2022-10-22T20:02:18.749Z,10.07
2022-10-22T20:08:25.981Z,8.40
2022-10-22T20:11:29.932Z,7.78
2022-10-22T20:14:32.423Z,8.00
2022-10-22T20:17:34.547Z,6.72
2022-10-22T20:20:39.981Z,7.72
2022-10-22T20:23:43.229Z,6.55
2022-10-22T20:26:47.278Z,6.65
2022-10-22T20:29:50.715Z,7.20
2022-10-22T20:32:53.370Z,6.85
2022-10-22T20:36:04.347Z,6.65
2022-10-22T20:39:08.989Z,8.25
2022-10-22T20:42:11.516Z,7.68
2022-10-22T20:45:13.696Z,7.22
2022-10-22T20:48:15.632Z,6.75
2022-10-22T20:51:17.663Z,6.50
2022-10-22T20:54:20.268Z,14.68
2022-10-22T20:57:23.058Z,13.48
2022-10-22T21:00:25.141Z,13.80
2022-10-22T21:03:27.143Z,12.60
2022-10-22T21:06:30.143Z,9.93
2022-10-22T21:09:34.362Z,10.45
2022-10-22T21:12:42.034Z,9.48
2022-10-22T21:15:44.588Z,6.63
2022-10-22T21:18:47.164Z,11.30
2022-10-22T21:21:49.808Z,13.88
2022-10-22T21:24:52.355Z,16.55
2022-10-22T21:27:56.668Z,20.23
2022-10-22T21:30:58.646Z,17.80
2022-10-22T21:34:00.528Z,16.92
2022-10-22T21:37:02.432Z,18.02
2022-10-22T21:40:05.250Z,14.43
2022-10-22T21:43:07.135Z,17.88
2022-10-22T21:46:12.499Z,17.27
2022-10-22T21:49:14.479Z,21.98
2022-10-22T21:52:17.049Z,10.80
2022-10-22T21:55:19.280Z,7.90
2022-10-22T21:58:21.010Z,8.27
2022-10-22T22:01:24.112Z,7.55
2022-10-22T22:04:26.735Z,6.78
2022-10-22T22:07:29.128Z,7.70
2022-10-22T22:10:31.283Z,6.65
2022-10-22T22:13:33.254Z,7.00
2022-10-22T22:16:36.074Z,6.53
2022-10-22T22:19:41.183Z,6.07
2022-10-22T22:22:43.733Z,6.47
2022-10-22T22:25:46.143Z,6.93
2022-10-22T22:28:48.914Z,6.47
2022-10-22T22:31:50.763Z,5.75
2022-10-22T22:34:52.564Z,6.07
2022-10-22T22:37:55.443Z,5.82
2022-10-22T22:40:59.600Z,6.95
2022-10-22T22:44:02.186Z,8.10
2022-10-22T22:47:05.212Z,7.20
2022-10-22T22:50:07.586Z,5.82
2022-10-22T22:53:09.847Z,6.25
2022-10-22T22:56:18.499Z,6.95
2022-10-22T22:59:20.600Z,6.85
2022-10-22T23:02:22.406Z,8.15
2022-10-22T23:05:25.305Z,9.52
2022-10-22T23:08:27.080Z,9.27
2022-10-22T23:11:29.790Z,9.00
2022-10-22T23:14:32.037Z,9.20
2022-10-22T23:17:33.712Z,9.05
2022-10-22T23:20:38.033Z,7.93
2022-10-22T23:23:43.552Z,9.80
2022-10-22T23:26:47.699Z,7.97
2022-10-22T23:29:49.358Z,7.90
2022-10-22T23:32:51.753Z,8.98
2022-10-22T23:35:53.786Z,8.98
2022-10-22T23:38:55.997Z,9.50
2022-10-22T23:41:58.500Z,7.97
2022-10-22T23:45:00.437Z,8.35
2022-10-22T23:48:03.346Z,6.72
2022-10-22T23:51:09.793Z,8.32
2022-10-22T23:54:14.377Z,6.53
2022-10-22T23:57:16.252Z,8.18
